createdAt,value
2019-02-25T00:03:33.248Z,7.53
2019-02-25T00:08:43.743Z,7.57
2019-02-25T00:13:52.065Z,7.70
2019-02-25T00:19:02.256Z,7.57
2019-02-25T00:24:11.966Z,7.80
2019-02-25T00:29:20.165Z,7.55
2019-02-25T00:34:29.761Z,6.80
2019-02-25T00:39:37.077Z,7.17
2019-02-25T00:44:44.200Z,7.13
2019-02-25T00:49:53.283Z,7.23
2019-02-25T00:55:01.287Z,6.40
2019-02-25T01:00:09.475Z,6.70
2019-02-25T01:05:18.518Z,6.73
2019-02-25T01:10:27.235Z,6.10
2019-02-25T01:15:38.876Z,7.00
2019-02-25T01:20:46.228Z,6.93
2019-02-25T01:25:57.145Z,6.73
2019-02-25T01:31:04.768Z,6.60
2019-02-25T01:36:13.014Z,7.28
2019-02-25T01:41:23.592Z,6.60
2019-02-25T01:46:31.822Z,6.90
2019-02-25T01:51:40.808Z,6.60
2019-02-25T01:56:49.377Z,7.30
2019-02-25T02:01:58.284Z,7.40
2019-02-25T02:07:07.474Z,6.87
2019-02-25T02:12:17.787Z,7.87
2019-02-25T02:17:26.554Z,7.50
2019-02-25T02:22:35.651Z,7.80
2019-02-25T02:27:44.390Z,7.30
2019-02-25T02:32:51.981Z,7.00
2019-02-25T02:38:01.621Z,7.20
2019-02-25T02:43:12.524Z,7.77
2019-02-25T02:48:32.805Z,7.70
2019-02-25T02:53:41.935Z,7.57
2019-02-25T02:58:52.070Z,7.50
2019-02-25T03:04:11.174Z,6.93
2019-02-25T03:09:20.162Z,7.87
2019-02-25T03:14:35.706Z,7.87
2019-02-25T03:19:46.570Z,7.27
2019-02-25T03:24:57.651Z,7.40
2019-02-25T03:30:13.963Z,7.80
2019-02-25T03:35:27.622Z,6.97
2019-02-25T03:40:39.365Z,7.33
2019-02-25T03:45:49.710Z,8.33
2019-02-25T03:51:00.654Z,7.17
2019-02-25T03:56:08.885Z,8.67
2019-02-25T04:01:21.636Z,8.13
2019-02-25T04:06:33.390Z,8.43
2019-02-25T04:11:48.648Z,7.90
2019-02-25T04:16:58.770Z,8.47
2019-02-25T04:22:16.108Z,8.30
2019-02-25T04:27:27.910Z,8.55
2019-02-25T04:32:38.729Z,8.37
2019-02-25T04:37:52.275Z,7.80
2019-02-25T04:43:07.494Z,8.67
2019-02-25T04:48:21.070Z,8.90
2019-02-25T04:53:32.112Z,8.35
2019-02-25T04:58:43.943Z,9.07
2019-02-25T05:03:52.746Z,8.70
2019-02-25T05:09:05.074Z,9.03
2019-02-25T05:14:15.059Z,8.73
2019-02-25T05:19:27.719Z,8.83
2019-02-25T05:24:43.152Z,10.13
2019-02-25T05:29:58.414Z,9.70
2019-02-25T05:35:11.478Z,10.17
2019-02-25T05:40:22.606Z,9.58
2019-02-25T05:45:33.023Z,10.27
2019-02-25T05:50:42.624Z,10.13
2019-02-25T05:55:55.593Z,10.03
2019-02-25T06:01:07.240Z,10.43
2019-02-25T06:06:13.644Z,9.60
2019-02-25T06:11:26.329Z,11.07
2019-02-25T06:16:39.831Z,10.07
2019-02-25T06:21:54.407Z,10.57
2019-02-25T06:27:01.922Z,9.83
2019-02-25T06:32:13.667Z,10.20
2019-02-25T06:37:21.382Z,9.80
2019-02-25T06:42:36.811Z,10.20
2019-02-25T06:47:50.489Z,10.90
2019-02-25T06:53:00.544Z,10.50
2019-02-25T06:58:08.999Z,10.10
2019-02-25T07:03:24.357Z,10.27
2019-02-25T07:08:51.718Z,11.27
2019-02-25T07:14:19.692Z,11.13
2019-02-25T07:19:35.880Z,9.00
2019-02-25T07:24:54.984Z,10.20
2019-02-25T07:30:21.286Z,9.27
2019-02-25T07:35:45.587Z,10.40
2019-02-25T07:41:20.266Z,11.87
2019-02-25T07:46:50.216Z,11.17
2019-02-25T07:52:07.337Z,10.87
2019-02-25T07:57:32.883Z,9.65
2019-02-25T08:03:02.536Z,9.63
2019-02-25T08:08:38.948Z,10.60
2019-02-25T08:13:57.487Z,9.07
2019-02-25T08:19:16.840Z,9.60
2019-02-25T08:24:44.836Z,9.15
2019-02-25T08:30:18.826Z,9.15
2019-02-25T08:36:27.396Z,8.60
2019-02-25T08:41:55.399Z,7.90
2019-02-25T08:47:11.463Z,8.30
2019-02-25T08:52:23.154Z,8.00
2019-02-25T08:57:32.656Z,7.90
2019-02-25T09:02:46.275Z,8.67
2019-02-25T09:08:01.027Z,8.17
2019-02-25T09:13:15.555Z,7.67
2019-02-25T09:18:30.165Z,7.40
2019-02-25T09:23:39.119Z,6.90
2019-02-25T09:28:49.975Z,7.93
2019-02-25T09:34:04.485Z,7.27
2019-02-25T09:39:20.106Z,7.70
2019-02-25T09:44:33.059Z,7.53
2019-02-25T09:49:41.648Z,7.00
2019-02-25T09:54:48.927Z,7.20
2019-02-25T10:00:03.079Z,7.20
2019-02-25T10:05:15.571Z,7.60
2019-02-25T10:10:27.237Z,7.28
2019-02-25T10:15:37.586Z,7.40
2019-02-25T10:20:50.202Z,8.38
2019-02-25T10:26:03.793Z,7.80
2019-02-25T10:31:15.377Z,7.78
2019-02-25T10:36:21.598Z,8.13
2019-02-25T10:41:33.286Z,8.00
2019-02-25T10:46:47.019Z,8.07
2019-02-25T10:51:55.209Z,8.30
2019-02-25T10:57:11.240Z,8.10
2019-02-25T11:02:23.455Z,8.15
2019-02-25T11:07:34.931Z,8.80
2019-02-25T11:12:46.943Z,9.13
2019-02-25T11:17:57.889Z,8.83
2019-02-25T11:23:10.145Z,9.13
2019-02-25T11:28:25.864Z,8.13
2019-02-25T11:33:37.349Z,8.50
2019-02-25T11:38:54.020Z,7.80
2019-02-25T11:44:08.807Z,7.30
2019-02-25T11:49:21.671Z,6.40
2019-02-25T17:11:17.875Z,4.10
2019-02-25T17:16:25.216Z,4.43
2019-02-25T17:21:33.979Z,5.20
2019-02-25T17:26:41.352Z,4.40
2019-02-25T17:31:52.727Z,4.20
2019-02-25T17:36:57.989Z,5.43
2019-02-25T17:42:08.147Z,4.63
2019-02-25T17:47:24.282Z,4.85
2019-02-25T17:52:31.599Z,5.27
2019-02-25T17:57:43.232Z,4.90
2019-02-25T18:02:55.053Z,5.97
2019-02-25T18:08:08.160Z,5.90
2019-02-25T18:13:15.406Z,5.78
2019-02-25T18:18:29.130Z,5.70
2019-02-25T18:23:36.315Z,6.53
2019-02-25T18:28:50.707Z,7.07
2019-02-25T18:34:01.676Z,6.77
2019-02-25T18:39:15.984Z,8.43
2019-02-25T18:44:25.997Z,10.08
2019-02-25T18:49:37.030Z,9.10
2019-02-25T18:54:48.516Z,9.33
2019-02-25T18:59:57.581Z,8.67
2019-02-25T19:05:04.873Z,10.70
2019-02-25T19:10:16.050Z,9.20
2019-02-25T19:15:23.171Z,8.20
2019-02-25T19:20:29.737Z,8.90
2019-02-25T19:25:38.531Z,8.70
2019-02-25T19:30:47.631Z,8.50
2019-02-25T19:35:58.352Z,13.00
2019-02-25T19:41:03.899Z,11.47
2019-02-25T19:46:15.343Z,11.87
2019-02-25T19:51:22.981Z,11.40
2019-02-25T19:56:32.647Z,10.23
2019-02-25T20:01:41.027Z,10.57
2019-02-25T20:06:49.439Z,10.50
2019-02-25T20:11:57.361Z,10.30
2019-02-25T20:17:06.105Z,10.73
2019-02-25T20:22:16.756Z,10.00
2019-02-25T20:27:24.802Z,10.37
2019-02-25T20:32:34.306Z,9.00
2019-02-25T20:37:43.938Z,9.30
2019-02-25T20:42:54.158Z,9.63
2019-02-25T20:48:01.916Z,9.37
2019-02-25T20:53:11.146Z,9.67
2019-02-25T20:58:20.901Z,9.60
2019-02-25T21:03:29.728Z,8.53
2019-02-25T21:08:39.853Z,10.07
2019-02-25T21:13:46.508Z,10.15
2019-02-25T21:18:55.086Z,10.13
2019-02-25T21:24:06.252Z,12.10
2019-02-25T21:29:15.277Z,10.57
2019-02-25T21:34:24.452Z,12.33
2019-02-25T21:39:28.104Z,11.08
2019-02-25T21:44:37.719Z,11.10
2019-02-25T21:49:48.710Z,11.23
2019-02-25T21:55:04.788Z,10.83
2019-02-25T22:00:15.923Z,12.97
2019-02-25T22:05:29.638Z,12.40
2019-02-25T22:10:39.867Z,11.97
2019-02-25T22:15:48.495Z,12.73
2019-02-25T22:21:05.120Z,13.17
2019-02-25T22:26:10.500Z,13.30
2019-02-25T22:31:23.191Z,11.20
2019-02-25T22:36:34.378Z,12.10
2019-02-25T22:41:48.645Z,13.00
2019-02-25T22:46:59.782Z,11.90
2019-02-25T22:52:13.135Z,11.83
2019-02-25T22:57:25.336Z,12.13
2019-02-25T23:02:33.545Z,11.77
2019-02-25T23:07:45.835Z,10.57
2019-02-25T23:12:55.265Z,9.63
2019-02-25T23:18:08.079Z,11.33
2019-02-25T23:23:21.199Z,11.30
2019-02-25T23:28:30.610Z,12.50
2019-02-25T23:33:42.099Z,11.07
2019-02-25T23:38:50.651Z,12.07
2019-02-25T23:44:07.155Z,11.37
2019-02-25T23:49:16.262Z,10.88
2019-02-25T23:54:29.799Z,10.32
2019-02-25T23:59:42.367Z,11.03
